sensor_id;sensor_type;location;lat;lon;timestamp;P1;durP1;ratioP1;P2;durP2;ratioP2
14704;SDS011;7442;50.840;3.396;2023-11-21T00:01:51;2.45;;;1.80;;
14704;SDS011;7442;50.840;3.396;2023-11-21T00:04:37;2.25;;;1.60;;
14704;SDS011;7442;50.840;3.396;2023-11-21T00:07:23;2.35;;;1.80;;
14704;SDS011;7442;50.840;3.396;2023-11-21T00:10:09;2.10;;;1.65;;
14704;SDS011;7442;50.840;3.396;2023-11-21T00:12:58;3.15;;;1.80;;
14704;SDS011;7442;50.840;3.396;2023-11-21T00:15:46;1.98;;;1.80;;
14704;SDS011;7442;50.840;3.396;2023-11-21T00:18:34;2.27;;;1.60;;
14704;SDS011;7442;50.840;3.396;2023-11-21T00:21:20;2.98;;;1.47;;
14704;SDS011;7442;50.840;3.396;2023-11-21T00:24:06;2.85;;;1.72;;
14704;SDS011;7442;50.840;3.396;2023-11-21T00:26:53;2.22;;;1.75;;
14704;SDS011;7442;50.840;3.396;2023-11-21T00:29:39;2.80;;;2.08;;
14704;SDS011;7442;50.840;3.396;2023-11-21T00:32:26;2.15;;;1.60;;
14704;SDS011;7442;50.840;3.396;2023-11-21T00:35:12;2.98;;;1.90;;
14704;SDS011;7442;50.840;3.396;2023-11-21T00:37:58;3.77;;;1.98;;
14704;SDS011;7442;50.840;3.396;2023-11-21T00:40:44;4.20;;;1.82;;
14704;SDS011;7442;50.840;3.396;2023-11-21T00:43:31;1.70;;;1.40;;
14704;SDS011;7442;50.840;3.396;2023-11-21T00:46:18;2.12;;;1.50;;
14704;SDS011;7442;50.840;3.396;2023-11-21T00:49:04;2.47;;;1.80;;
14704;SDS011;7442;50.840;3.396;2023-11-21T00:51:50;2.60;;;1.92;;
14704;SDS011;7442;50.840;3.396;2023-11-21T00:54:36;3.75;;;2.15;;
14704;SDS011;7442;50.840;3.396;2023-11-21T00:57:22;2.00;;;1.60;;
14704;SDS011;7442;50.840;3.396;2023-11-21T01:00:09;3.05;;;1.90;;
14704;SDS011;7442;50.840;3.396;2023-11-21T01:02:59;2.85;;;1.85;;
14704;SDS011;7442;50.840;3.396;2023-11-21T01:05:46;2.35;;;1.70;;
14704;SDS011;7442;50.840;3.396;2023-11-21T01:08:34;3.10;;;1.67;;
14704;SDS011;7442;50.840;3.396;2023-11-21T01:11:21;1.85;;;1.40;;
14704;SDS011;7442;50.840;3.396;2023-11-21T01:16:53;1.85;;;1.60;;
14704;SDS011;7442;50.840;3.396;2023-11-21T01:19:39;2.98;;;1.57;;
14704;SDS011;7442;50.840;3.396;2023-11-21T01:22:26;2.00;;;1.52;;
14704;SDS011;7442;50.840;3.396;2023-11-21T01:25:12;4.70;;;1.52;;
14704;SDS011;7442;50.840;3.396;2023-11-21T01:27:58;2.62;;;1.45;;
14704;SDS011;7442;50.840;3.396;2023-11-21T01:30:45;3.22;;;1.67;;
14704;SDS011;7442;50.840;3.396;2023-11-21T01:33:31;2.77;;;1.62;;
14704;SDS011;7442;50.840;3.396;2023-11-21T01:36:17;2.47;;;1.50;;
14704;SDS011;7442;50.840;3.396;2023-11-21T01:39:03;2.30;;;1.40;;
14704;SDS011;7442;50.840;3.396;2023-11-21T01:41:51;3.35;;;1.65;;
14704;SDS011;7442;50.840;3.396;2023-11-21T01:44:38;2.47;;;1.60;;
14704;SDS011;7442;50.840;3.396;2023-11-21T01:47:24;2.67;;;1.82;;
14704;SDS011;7442;50.840;3.396;2023-11-21T01:50:13;2.25;;;1.90;;
14704;SDS011;7442;50.840;3.396;2023-11-21T01:53:00;2.77;;;1.77;;
14704;SDS011;7442;50.840;3.396;2023-11-21T01:55:47;1.95;;;1.50;;
14704;SDS011;7442;50.840;3.396;2023-11-21T01:58:33;3.15;;;1.62;;
14704;SDS011;7442;50.840;3.396;2023-11-21T02:01:20;2.83;;;1.98;;
14704;SDS011;7442;50.840;3.396;2023-11-21T02:04:06;1.80;;;1.37;;
14704;SDS011;7442;50.840;3.396;2023-11-21T02:06:52;2.47;;;1.42;;
14704;SDS011;7442;50.840;3.396;2023-11-21T02:09:39;1.60;;;1.50;;
14704;SDS011;7442;50.840;3.396;2023-11-21T02:12:27;2.25;;;1.70;;
14704;SDS011;7442;50.840;3.396;2023-11-21T02:15:13;2.37;;;1.62;;
14704;SDS011;7442;50.840;3.396;2023-11-21T02:17:59;1.35;;;1.25;;
14704;SDS011;7442;50.840;3.396;2023-11-21T02:20:47;2.17;;;1.70;;
14704;SDS011;7442;50.840;3.396;2023-11-21T02:23:33;1.47;;;1.30;;
14704;SDS011;7442;50.840;3.396;2023-11-21T02:26:19;1.80;;;1.30;;
14704;SDS011;7442;50.840;3.396;2023-11-21T02:29:06;3.22;;;1.52;;
14704;SDS011;7442;50.840;3.396;2023-11-21T02:31:54;1.72;;;1.50;;
14704;SDS011;7442;50.840;3.396;2023-11-21T02:34:40;3.58;;;1.47;;
14704;SDS011;7442;50.840;3.396;2023-11-21T02:37:27;2.40;;;1.55;;
14704;SDS011;7442;50.840;3.396;2023-11-21T02:40:15;1.95;;;1.35;;
14704;SDS011;7442;50.840;3.396;2023-11-21T02:43:05;1.62;;;1.15;;
14704;SDS011;7442;50.840;3.396;2023-11-21T02:45:52;1.90;;;1.50;;
14704;SDS011;7442;50.840;3.396;2023-11-21T02:48:40;1.70;;;1.45;;
14704;SDS011;7442;50.840;3.396;2023-11-21T02:51:26;3.08;;;1.30;;
14704;SDS011;7442;50.840;3.396;2023-11-21T02:54:13;1.92;;;1.50;;
14704;SDS011;7442;50.840;3.396;2023-11-21T02:56:59;1.72;;;1.50;;
14704;SDS011;7442;50.840;3.396;2023-11-21T02:59:45;2.98;;;1.30;;
14704;SDS011;7442;50.840;3.396;2023-11-21T03:02:32;3.20;;;1.30;;
14704;SDS011;7442;50.840;3.396;2023-11-21T03:05:19;1.82;;;1.40;;
14704;SDS011;7442;50.840;3.396;2023-11-21T03:08:05;2.05;;;1.55;;
14704;SDS011;7442;50.840;3.396;2023-11-21T03:10:52;1.72;;;1.42;;
14704;SDS011;7442;50.840;3.396;2023-11-21T03:13:41;1.82;;;1.55;;
14704;SDS011;7442;50.840;3.396;2023-11-21T03:16:27;3.20;;;1.40;;
14704;SDS011;7442;50.840;3.396;2023-11-21T03:19:14;2.50;;;1.80;;
14704;SDS011;7442;50.840;3.396;2023-11-21T03:22:00;1.75;;;1.37;;
14704;SDS011;7442;50.840;3.396;2023-11-21T03:24:46;1.35;;;1.17;;
14704;SDS011;7442;50.840;3.396;2023-11-21T03:27:32;1.62;;;1.40;;
14704;SDS011;7442;50.840;3.396;2023-11-21T03:30:18;1.95;;;1.47;;
14704;SDS011;7442;50.840;3.396;2023-11-21T03:33:05;1.30;;;1.20;;
14704;SDS011;7442;50.840;3.396;2023-11-21T03:35:52;1.72;;;1.45;;
14704;SDS011;7442;50.840;3.396;2023-11-21T03:38:38;2.12;;;1.70;;
14704;SDS011;7442;50.840;3.396;2023-11-21T03:41:24;2.00;;;1.40;;
14704;SDS011;7442;50.840;3.396;2023-11-21T03:44:11;1.85;;;1.35;;
14704;SDS011;7442;50.840;3.396;2023-11-21T03:46:57;1.22;;;1.12;;
14704;SDS011;7442;50.840;3.396;2023-11-21T03:49:43;2.15;;;1.45;;
14704;SDS011;7442;50.840;3.396;2023-11-21T03:52:30;3.42;;;1.50;;
14704;SDS011;7442;50.840;3.396;2023-11-21T03:55:16;1.45;;;1.30;;
14704;SDS011;7442;50.840;3.396;2023-11-21T03:58:02;1.25;;;1.10;;
14704;SDS011;7442;50.840;3.396;2023-11-21T04:00:48;1.52;;;1.42;;
14704;SDS011;7442;50.840;3.396;2023-11-21T04:03:34;1.62;;;1.40;;
14704;SDS011;7442;50.840;3.396;2023-11-21T04:06:21;1.60;;;1.05;;
14704;SDS011;7442;50.840;3.396;2023-11-21T04:09:07;2.17;;;1.60;;
14704;SDS011;7442;50.840;3.396;2023-11-21T04:11:54;1.30;;;1.20;;
14704;SDS011;7442;50.840;3.396;2023-11-21T04:14:40;1.45;;;1.35;;
14704;SDS011;7442;50.840;3.396;2023-11-21T04:17:26;1.45;;;1.35;;
14704;SDS011;7442;50.840;3.396;2023-11-21T04:20:12;1.47;;;1.25;;
14704;SDS011;7442;50.840;3.396;2023-11-21T04:22:59;1.72;;;1.20;;
14704;SDS011;7442;50.840;3.396;2023-11-21T04:25:45;1.52;;;1.30;;
14704;SDS011;7442;50.840;3.396;2023-11-21T04:28:31;1.30;;;1.10;;
14704;SDS011;7442;50.840;3.396;2023-11-21T04:31:17;1.90;;;1.40;;
14704;SDS011;7442;50.840;3.396;2023-11-21T04:34:03;4.35;;;1.40;;
14704;SDS011;7442;50.840;3.396;2023-11-21T04:36:50;1.90;;;1.32;;
14704;SDS011;7442;50.840;3.396;2023-11-21T04:39:37;2.98;;;1.32;;
14704;SDS011;7442;50.840;3.396;2023-11-21T04:42:23;1.62;;;1.47;;
14704;SDS011;7442;50.840;3.396;2023-11-21T04:45:09;1.50;;;1.12;;
14704;SDS011;7442;50.840;3.396;2023-11-21T04:47:56;1.87;;;1.32;;
14704;SDS011;7442;50.840;3.396;2023-11-21T04:50:42;1.50;;;1.40;;
14704;SDS011;7442;50.840;3.396;2023-11-21T04:53:28;1.70;;;1.30;;
14704;SDS011;7442;50.840;3.396;2023-11-21T04:56:14;1.40;;;1.30;;
14704;SDS011;7442;50.840;3.396;2023-11-21T04:59:01;3.83;;;2.05;;
14704;SDS011;7442;50.840;3.396;2023-11-21T05:01:48;1.50;;;1.40;;
14704;SDS011;7442;50.840;3.396;2023-11-21T05:04:35;2.40;;;1.20;;
14704;SDS011;7442;50.840;3.396;2023-11-21T05:07:22;2.15;;;1.37;;
14704;SDS011;7442;50.840;3.396;2023-11-21T05:10:08;1.30;;;1.20;;
14704;SDS011;7442;50.840;3.396;2023-11-21T05:12:59;1.65;;;1.37;;
14704;SDS011;7442;50.840;3.396;2023-11-21T05:15:45;1.42;;;1.32;;
14704;SDS011;7442;50.840;3.396;2023-11-21T05:18:31;1.98;;;1.40;;
14704;SDS011;7442;50.840;3.396;2023-11-21T05:21:18;1.60;;;1.22;;
14704;SDS011;7442;50.840;3.396;2023-11-21T05:24:05;1.95;;;1.30;;
14704;SDS011;7442;50.840;3.396;2023-11-21T05:26:51;2.83;;;1.30;;
14704;SDS011;7442;50.840;3.396;2023-11-21T05:29:37;2.95;;;1.10;;
14704;SDS011;7442;50.840;3.396;2023-11-21T05:32:23;1.52;;;1.42;;
14704;SDS011;7442;50.840;3.396;2023-11-21T05:35:10;1.30;;;1.20;;
14704;SDS011;7442;50.840;3.396;2023-11-21T05:38:02;1.20;;;1.10;;
14704;SDS011;7442;50.840;3.396;2023-11-21T05:40:49;3.00;;;1.45;;
14704;SDS011;7442;50.840;3.396;2023-11-21T05:43:35;1.45;;;1.35;;
14704;SDS011;7442;50.840;3.396;2023-11-21T05:46:21;3.37;;;1.07;;
14704;SDS011;7442;50.840;3.396;2023-11-21T05:49:07;1.40;;;1.30;;
14704;SDS011;7442;50.840;3.396;2023-11-21T05:51:55;1.20;;;1.10;;
14704;SDS011;7442;50.840;3.396;2023-11-21T05:54:42;1.37;;;1.10;;
14704;SDS011;7442;50.840;3.396;2023-11-21T05:57:28;1.67;;;1.30;;
14704;SDS011;7442;50.840;3.396;2023-11-21T06:00:14;2.47;;;1.00;;
14704;SDS011;7442;50.840;3.396;2023-11-21T06:03:05;1.42;;;1.20;;
14704;SDS011;7442;50.840;3.396;2023-11-21T06:05:52;1.27;;;1.17;;
14704;SDS011;7442;50.840;3.396;2023-11-21T06:08:38;1.45;;;1.20;;
14704;SDS011;7442;50.840;3.396;2023-11-21T06:11:24;1.25;;;1.15;;
14704;SDS011;7442;50.840;3.396;2023-11-21T06:14:11;1.27;;;1.17;;
14704;SDS011;7442;50.840;3.396;2023-11-21T06:16:57;2.95;;;1.10;;
14704;SDS011;7442;50.840;3.396;2023-11-21T06:19:44;1.37;;;1.12;;
14704;SDS011;7442;50.840;3.396;2023-11-21T06:22:38;1.20;;;1.10;;
14704;SDS011;7442;50.840;3.396;2023-11-21T06:25:27;1.75;;;1.35;;
14704;SDS011;7442;50.840;3.396;2023-11-21T06:28:13;1.20;;;1.10;;
14704;SDS011;7442;50.840;3.396;2023-11-21T06:31:00;3.12;;;1.10;;
14704;SDS011;7442;50.840;3.396;2023-11-21T06:33:49;2.20;;;1.40;;
14704;SDS011;7442;50.840;3.396;2023-11-21T06:36:37;1.77;;;1.20;;
14704;SDS011;7442;50.840;3.396;2023-11-21T06:39:23;5.12;;;3.37;;
14704;SDS011;7442;50.840;3.396;2023-11-21T06:42:09;2.27;;;1.80;;
14704;SDS011;7442;50.840;3.396;2023-11-21T06:44:57;1.67;;;1.57;;
14704;SDS011;7442;50.840;3.396;2023-11-21T06:47:43;3.08;;;1.60;;
14704;SDS011;7442;50.840;3.396;2023-11-21T06:50:29;2.15;;;1.90;;
14704;SDS011;7442;50.840;3.396;2023-11-21T06:53:15;3.95;;;1.62;;
14704;SDS011;7442;50.840;3.396;2023-11-21T06:56:01;4.05;;;1.50;;
14704;SDS011;7442;50.840;3.396;2023-11-21T06:58:48;4.00;;;1.72;;
14704;SDS011;7442;50.840;3.396;2023-11-21T07:01:34;1.90;;;1.30;;
14704;SDS011;7442;50.840;3.396;2023-11-21T07:04:22;1.90;;;1.57;;
14704;SDS011;7442;50.840;3.396;2023-11-21T07:07:10;3.37;;;1.50;;
14704;SDS011;7442;50.840;3.396;2023-11-21T07:09:57;1.62;;;1.50;;
14704;SDS011;7442;50.840;3.396;2023-11-21T07:12:45;2.60;;;1.70;;
14704;SDS011;7442;50.840;3.396;2023-11-21T07:15:31;3.05;;;1.65;;
14704;SDS011;7442;50.840;3.396;2023-11-21T07:18:18;6.62;;;1.62;;
14704;SDS011;7442;50.840;3.396;2023-11-21T07:21:04;3.05;;;1.65;;
14704;SDS011;7442;50.840;3.396;2023-11-21T07:23:51;2.72;;;1.65;;
14704;SDS011;7442;50.840;3.396;2023-11-21T07:26:38;1.85;;;1.25;;
14704;SDS011;7442;50.840;3.396;2023-11-21T07:29:24;1.87;;;1.57;;
14704;SDS011;7442;50.840;3.396;2023-11-21T07:32:10;2.15;;;1.70;;
14704;SDS011;7442;50.840;3.396;2023-11-21T07:34:58;2.08;;;1.42;;
14704;SDS011;7442;50.840;3.396;2023-11-21T07:37:46;2.47;;;1.82;;
14704;SDS011;7442;50.840;3.396;2023-11-21T07:40:33;2.00;;;1.80;;
14704;SDS011;7442;50.840;3.396;2023-11-21T07:43:20;2.35;;;1.55;;
14704;SDS011;7442;50.840;3.396;2023-11-21T07:46:07;2.15;;;1.70;;
14704;SDS011;7442;50.840;3.396;2023-11-21T07:48:54;2.05;;;1.60;;
14704;SDS011;7442;50.840;3.396;2023-11-21T07:51:40;2.77;;;1.57;;
14704;SDS011;7442;50.840;3.396;2023-11-21T07:54:26;1.98;;;1.77;;
14704;SDS011;7442;50.840;3.396;2023-11-21T07:57:13;1.95;;;1.62;;
14704;SDS011;7442;50.840;3.396;2023-11-21T07:59:59;2.17;;;1.60;;
14704;SDS011;7442;50.840;3.396;2023-11-21T08:02:45;1.55;;;1.35;;
14704;SDS011;7442;50.840;3.396;2023-11-21T08:05:31;1.82;;;1.30;;
14704;SDS011;7442;50.840;3.396;2023-11-21T08:08:18;5.53;;;1.42;;
14704;SDS011;7442;50.840;3.396;2023-11-21T08:11:04;2.02;;;1.30;;
14704;SDS011;7442;50.840;3.396;2023-11-21T08:13:52;3.15;;;1.57;;
14704;SDS011;7442;50.840;3.396;2023-11-21T08:16:39;1.70;;;1.60;;
14704;SDS011;7442;50.840;3.396;2023-11-21T08:19:25;1.80;;;1.55;;
14704;SDS011;7442;50.840;3.396;2023-11-21T08:22:11;2.70;;;1.90;;
14704;SDS011;7442;50.840;3.396;2023-11-21T08:24:58;2.95;;;1.77;;
14704;SDS011;7442;50.840;3.396;2023-11-21T08:27:44;2.62;;;1.75;;
14704;SDS011;7442;50.840;3.396;2023-11-21T08:30:30;1.87;;;1.52;;
14704;SDS011;7442;50.840;3.396;2023-11-21T08:33:16;1.82;;;1.50;;
14704;SDS011;7442;50.840;3.396;2023-11-21T08:36:06;2.20;;;1.70;;
14704;SDS011;7442;50.840;3.396;2023-11-21T08:38:55;3.00;;;1.42;;
14704;SDS011;7442;50.840;3.396;2023-11-21T08:41:42;3.95;;;1.75;;
14704;SDS011;7442;50.840;3.396;2023-11-21T08:44:28;2.60;;;1.80;;
14704;SDS011;7442;50.840;3.396;2023-11-21T08:47:16;4.45;;;1.80;;
14704;SDS011;7442;50.840;3.396;2023-11-21T08:50:03;3.83;;;1.65;;
14704;SDS011;7442;50.840;3.396;2023-11-21T08:52:50;2.17;;;1.22;;
14704;SDS011;7442;50.840;3.396;2023-11-21T08:55:37;2.15;;;1.55;;
14704;SDS011;7442;50.840;3.396;2023-11-21T08:58:24;5.00;;;1.90;;
14704;SDS011;7442;50.840;3.396;2023-11-21T09:01:10;3.67;;;1.90;;
14704;SDS011;7442;50.840;3.396;2023-11-21T09:04:02;3.47;;;1.87;;
14704;SDS011;7442;50.840;3.396;2023-11-21T09:06:44;7.25;;;1.98;;
14704;SDS011;7442;50.840;3.396;2023-11-21T09:09:31;3.77;;;2.00;;
14704;SDS011;7442;50.840;3.396;2023-11-21T09:12:17;1.87;;;1.57;;
14704;SDS011;7442;50.840;3.396;2023-11-21T09:15:07;2.47;;;1.70;;
14704;SDS011;7442;50.840;3.396;2023-11-21T09:17:55;2.47;;;1.62;;
14704;SDS011;7442;50.840;3.396;2023-11-21T09:20:42;3.40;;;1.47;;
14704;SDS011;7442;50.840;3.396;2023-11-21T09:23:31;6.70;;;1.72;;
14704;SDS011;7442;50.840;3.396;2023-11-21T09:26:18;8.78;;;1.90;;
14704;SDS011;7442;50.840;3.396;2023-11-21T09:29:04;3.37;;;1.92;;
14704;SDS011;7442;50.840;3.396;2023-11-21T09:31:52;2.05;;;1.72;;
14704;SDS011;7442;50.840;3.396;2023-11-21T09:34:39;2.62;;;1.90;;
14704;SDS011;7442;50.840;3.396;2023-11-21T09:37:26;4.45;;;2.12;;
14704;SDS011;7442;50.840;3.396;2023-11-21T09:40:13;3.60;;;1.60;;
14704;SDS011;7442;50.840;3.396;2023-11-21T09:43:01;3.15;;;1.90;;
14704;SDS011;7442;50.840;3.396;2023-11-21T09:45:59;2.47;;;1.80;;
14704;SDS011;7442;50.840;3.396;2023-11-21T09:48:41;1.92;;;1.52;;
14704;SDS011;7442;50.840;3.396;2023-11-21T09:51:30;3.25;;;1.60;;
14704;SDS011;7442;50.840;3.396;2023-11-21T09:54:19;3.30;;;1.60;;
14704;SDS011;7442;50.840;3.396;2023-11-21T09:57:06;4.78;;;1.65;;
14704;SDS011;7442;50.840;3.396;2023-11-21T09:59:54;1.52;;;1.40;;
14704;SDS011;7442;50.840;3.396;2023-11-21T10:02:42;1.50;;;1.40;;
14704;SDS011;7442;50.840;3.396;2023-11-21T10:05:29;1.90;;;1.67;;
14704;SDS011;7442;50.840;3.396;2023-11-21T10:08:17;1.62;;;1.52;;
14704;SDS011;7442;50.840;3.396;2023-11-21T10:11:05;3.00;;;1.52;;
14704;SDS011;7442;50.840;3.396;2023-11-21T10:13:55;1.95;;;1.70;;
14704;SDS011;7442;50.840;3.396;2023-11-21T10:16:44;1.80;;;1.45;;
14704;SDS011;7442;50.840;3.396;2023-11-21T10:19:33;1.98;;;1.72;;
14704;SDS011;7442;50.840;3.396;2023-11-21T10:22:21;2.60;;;1.62;;
14704;SDS011;7442;50.840;3.396;2023-11-21T10:25:08;1.67;;;1.57;;
14704;SDS011;7442;50.840;3.396;2023-11-21T10:27:58;2.58;;;1.62;;
14704;SDS011;7442;50.840;3.396;2023-11-21T10:30:45;1.37;;;1.15;;
14704;SDS011;7442;50.840;3.396;2023-11-21T10:33:32;2.47;;;1.40;;
14704;SDS011;7442;50.840;3.396;2023-11-21T10:36:25;3.05;;;1.60;;
14704;SDS011;7442;50.840;3.396;2023-11-21T10:39:24;3.17;;;1.90;;
14704;SDS011;7442;50.840;3.396;2023-11-21T10:42:08;4.25;;;1.82;;
14704;SDS011;7442;50.840;3.396;2023-11-21T10:44:54;4.00;;;2.00;;
14704;SDS011;7442;50.840;3.396;2023-11-21T10:47:41;5.58;;;2.33;;
14704;SDS011;7442;50.840;3.396;2023-11-21T10:50:29;3.30;;;1.90;;
14704;SDS011;7442;50.840;3.396;2023-11-21T10:53:15;8.63;;;2.80;;
14704;SDS011;7442;50.840;3.396;2023-11-21T10:56:02;9.23;;;2.55;;
14704;SDS011;7442;50.840;3.396;2023-11-21T10:58:59;5.78;;;2.20;;
14704;SDS011;7442;50.840;3.396;2023-11-21T11:01:45;5.45;;;2.42;;
14704;SDS011;7442;50.840;3.396;2023-11-21T11:04:34;8.70;;;2.90;;
14704;SDS011;7442;50.840;3.396;2023-11-21T11:07:24;7.62;;;2.60;;
14704;SDS011;7442;50.840;3.396;2023-11-21T11:10:11;11.22;;;2.42;;
14704;SDS011;7442;50.840;3.396;2023-11-21T11:12:59;7.33;;;2.42;;
14704;SDS011;7442;50.840;3.396;2023-11-21T11:15:49;8.20;;;2.80;;
14704;SDS011;7442;50.840;3.396;2023-11-21T11:18:36;8.03;;;3.08;;
14704;SDS011;7442;50.840;3.396;2023-11-21T11:24:21;7.70;;;2.60;;
14704;SDS011;7442;50.840;3.396;2023-11-21T11:27:30;8.55;;;2.85;;
14704;SDS011;7442;50.840;3.396;2023-11-21T11:36:21;5.87;;;2.60;;
14704;SDS011;7442;50.840;3.396;2023-11-21T11:42:17;8.48;;;2.65;;
14704;SDS011;7442;50.840;3.396;2023-11-21T11:45:31;6.90;;;2.58;;
14704;SDS011;7442;50.840;3.396;2023-11-21T11:47:56;5.55;;;2.70;;
14704;SDS011;7442;50.840;3.396;2023-11-21T11:53:59;6.83;;;2.50;;
14704;SDS011;7442;50.840;3.396;2023-11-21T11:56:46;6.47;;;2.55;;
14704;SDS011;7442;50.840;3.396;2023-11-21T11:59:50;7.22;;;2.80;;
14704;SDS011;7442;50.840;3.396;2023-11-21T12:02:23;8.73;;;2.60;;
14704;SDS011;7442;50.840;3.396;2023-11-21T12:05:15;4.72;;;2.62;;
14704;SDS011;7442;50.840;3.396;2023-11-21T12:08:07;5.22;;;2.42;;
14704;SDS011;7442;50.840;3.396;2023-11-21T12:10:51;7.92;;;2.80;;
14704;SDS011;7442;50.840;3.396;2023-11-21T12:13:38;4.37;;;2.50;;
14704;SDS011;7442;50.840;3.396;2023-11-21T12:16:25;5.92;;;2.45;;
14704;SDS011;7442;50.840;3.396;2023-11-21T12:19:12;5.75;;;2.40;;
14704;SDS011;7442;50.840;3.396;2023-11-21T12:21:59;6.08;;;2.47;;
14704;SDS011;7442;50.840;3.396;2023-11-21T12:24:45;9.15;;;2.98;;
14704;SDS011;7442;50.840;3.396;2023-11-21T12:27:31;5.17;;;2.27;;
14704;SDS011;7442;50.840;3.396;2023-11-21T12:30:19;4.35;;;2.30;;
14704;SDS011;7442;50.840;3.396;2023-11-21T12:33:07;5.08;;;2.22;;
14704;SDS011;7442;50.840;3.396;2023-11-21T12:35:53;5.17;;;2.10;;
14704;SDS011;7442;50.840;3.396;2023-11-21T12:38:42;5.92;;;2.20;;
14704;SDS011;7442;50.840;3.396;2023-11-21T12:41:28;5.30;;;2.17;;
14704;SDS011;7442;50.840;3.396;2023-11-21T12:44:15;5.87;;;2.60;;
14704;SDS011;7442;50.840;3.396;2023-11-21T12:47:02;5.25;;;2.40;;
14704;SDS011;7442;50.840;3.396;2023-11-21T12:49:50;4.95;;;2.10;;
14704;SDS011;7442;50.840;3.396;2023-11-21T12:52:36;6.58;;;2.50;;
14704;SDS011;7442;50.840;3.396;2023-11-21T12:55:24;7.67;;;2.40;;
14704;SDS011;7442;50.840;3.396;2023-11-21T12:58:11;7.33;;;2.60;;
14704;SDS011;7442;50.840;3.396;2023-11-21T13:00:57;6.37;;;2.80;;
14704;SDS011;7442;50.840;3.396;2023-11-21T13:03:47;6.58;;;2.45;;
14704;SDS011;7442;50.840;3.396;2023-11-21T13:06:35;4.92;;;2.58;;
14704;SDS011;7442;50.840;3.396;2023-11-21T13:09:23;6.15;;;2.58;;
14704;SDS011;7442;50.840;3.396;2023-11-21T13:12:09;5.65;;;2.72;;
14704;SDS011;7442;50.840;3.396;2023-11-21T13:14:57;5.17;;;2.50;;
14704;SDS011;7442;50.840;3.396;2023-11-21T13:17:46;4.33;;;2.30;;
14704;SDS011;7442;50.840;3.396;2023-11-21T13:20:33;7.67;;;2.65;;
14704;SDS011;7442;50.840;3.396;2023-11-21T13:23:20;4.90;;;2.58;;
14704;SDS011;7442;50.840;3.396;2023-11-21T13:26:07;5.28;;;2.40;;
14704;SDS011;7442;50.840;3.396;2023-11-21T13:28:53;3.45;;;2.27;;
14704;SDS011;7442;50.840;3.396;2023-11-21T13:31:42;4.03;;;2.40;;
14704;SDS011;7442;50.840;3.396;2023-11-21T13:34:28;5.72;;;2.22;;
14704;SDS011;7442;50.840;3.396;2023-11-21T13:37:14;7.85;;;2.33;;
14704;SDS011;7442;50.840;3.396;2023-11-21T13:40:01;5.22;;;2.40;;
14704;SDS011;7442;50.840;3.396;2023-11-21T13:42:49;3.90;;;2.62;;
14704;SDS011;7442;50.840;3.396;2023-11-21T13:45:37;4.47;;;2.47;;
14704;SDS011;7442;50.840;3.396;2023-11-21T13:48:25;4.60;;;1.92;;
14704;SDS011;7442;50.840;3.396;2023-11-21T13:51:15;4.85;;;2.40;;
14704;SDS011;7442;50.840;3.396;2023-11-21T13:54:05;3.95;;;2.20;;
14704;SDS011;7442;50.840;3.396;2023-11-21T13:56:54;4.17;;;1.80;;
14704;SDS011;7442;50.840;3.396;2023-11-21T13:59:41;3.98;;;2.27;;
14704;SDS011;7442;50.840;3.396;2023-11-21T14:02:28;4.03;;;1.87;;
14704;SDS011;7442;50.840;3.396;2023-11-21T14:05:16;5.22;;;1.87;;
14704;SDS011;7442;50.840;3.396;2023-11-21T14:08:04;4.45;;;2.25;;
14704;SDS011;7442;50.840;3.396;2023-11-21T14:10:50;4.87;;;2.30;;
14704;SDS011;7442;50.840;3.396;2023-11-21T14:13:38;3.98;;;1.85;;
14704;SDS011;7442;50.840;3.396;2023-11-21T14:16:26;4.85;;;1.75;;
14704;SDS011;7442;50.840;3.396;2023-11-21T14:19:12;5.30;;;2.02;;
14704;SDS011;7442;50.840;3.396;2023-11-21T14:22:02;4.17;;;2.08;;
14704;SDS011;7442;50.840;3.396;2023-11-21T14:24:48;4.33;;;2.05;;
14704;SDS011;7442;50.840;3.396;2023-11-21T14:27:37;3.33;;;1.70;;
14704;SDS011;7442;50.840;3.396;2023-11-21T14:30:23;3.87;;;2.20;;
14704;SDS011;7442;50.840;3.396;2023-11-21T14:33:11;4.37;;;1.90;;
14704;SDS011;7442;50.840;3.396;2023-11-21T14:35:57;3.10;;;1.90;;
14704;SDS011;7442;50.840;3.396;2023-11-21T14:38:44;5.25;;;2.00;;
14704;SDS011;7442;50.840;3.396;2023-11-21T14:41:30;4.75;;;2.20;;
14704;SDS011;7442;50.840;3.396;2023-11-21T14:44:16;6.47;;;2.72;;
14704;SDS011;7442;50.840;3.396;2023-11-21T14:47:02;3.17;;;1.90;;
14704;SDS011;7442;50.840;3.396;2023-11-21T14:49:56;3.52;;;1.85;;
14704;SDS011;7442;50.840;3.396;2023-11-21T14:52:44;3.60;;;2.15;;
14704;SDS011;7442;50.840;3.396;2023-11-21T14:55:32;5.33;;;2.15;;
14704;SDS011;7442;50.840;3.396;2023-11-21T14:58:39;4.90;;;2.30;;
14704;SDS011;7442;50.840;3.396;2023-11-21T15:01:26;6.37;;;2.15;;
14704;SDS011;7442;50.840;3.396;2023-11-21T15:04:13;4.05;;;2.02;;
14704;SDS011;7442;50.840;3.396;2023-11-21T15:07:02;3.27;;;1.72;;
14704;SDS011;7442;50.840;3.396;2023-11-21T15:09:48;8.48;;;2.12;;
14704;SDS011;7442;50.840;3.396;2023-11-21T15:12:36;5.75;;;2.17;;
14704;SDS011;7442;50.840;3.396;2023-11-21T15:15:24;3.72;;;1.62;;
14704;SDS011;7442;50.840;3.396;2023-11-21T15:18:12;4.00;;;1.57;;
14704;SDS011;7442;50.840;3.396;2023-11-21T15:20:58;5.45;;;1.77;;
14704;SDS011;7442;50.840;3.396;2023-11-21T15:23:44;3.12;;;1.80;;
14704;SDS011;7442;50.840;3.396;2023-11-21T15:26:31;5.05;;;2.00;;
14704;SDS011;7442;50.840;3.396;2023-11-21T15:29:17;4.80;;;1.82;;
14704;SDS011;7442;50.840;3.396;2023-11-21T15:32:05;2.72;;;1.50;;
14704;SDS011;7442;50.840;3.396;2023-11-21T15:34:52;3.22;;;1.82;;
14704;SDS011;7442;50.840;3.396;2023-11-21T15:37:38;3.08;;;1.50;;
14704;SDS011;7442;50.840;3.396;2023-11-21T15:40:25;2.60;;;1.70;;
14704;SDS011;7442;50.840;3.396;2023-11-21T15:43:11;2.98;;;1.75;;
14704;SDS011;7442;50.840;3.396;2023-11-21T15:45:58;2.92;;;1.62;;
14704;SDS011;7442;50.840;3.396;2023-11-21T15:48:46;2.45;;;1.42;;
14704;SDS011;7442;50.840;3.396;2023-11-21T15:51:38;13.20;;;1.60;;
14704;SDS011;7442;50.840;3.396;2023-11-21T15:54:26;5.17;;;1.77;;
14704;SDS011;7442;50.840;3.396;2023-11-21T15:57:14;3.02;;;1.60;;
14704;SDS011;7442;50.840;3.396;2023-11-21T16:00:01;5.22;;;1.50;;
14704;SDS011;7442;50.840;3.396;2023-11-21T16:02:49;3.40;;;1.90;;
14704;SDS011;7442;50.840;3.396;2023-11-21T16:05:37;3.50;;;1.45;;
14704;SDS011;7442;50.840;3.396;2023-11-21T16:08:24;3.10;;;1.80;;
14704;SDS011;7442;50.840;3.396;2023-11-21T16:11:10;3.52;;;1.80;;
14704;SDS011;7442;50.840;3.396;2023-11-21T16:13:57;4.28;;;1.67;;
14704;SDS011;7442;50.840;3.396;2023-11-21T16:16:44;6.03;;;1.90;;
14704;SDS011;7442;50.840;3.396;2023-11-21T16:19:31;4.17;;;1.62;;
14704;SDS011;7442;50.840;3.396;2023-11-21T16:22:18;2.33;;;1.65;;
14704;SDS011;7442;50.840;3.396;2023-11-21T16:25:09;2.60;;;1.60;;
14704;SDS011;7442;50.840;3.396;2023-11-21T16:27:56;4.22;;;1.42;;
14704;SDS011;7442;50.840;3.396;2023-11-21T16:30:44;3.70;;;1.32;;
14704;SDS011;7442;50.840;3.396;2023-11-21T16:33:30;4.45;;;1.60;;
14704;SDS011;7442;50.840;3.396;2023-11-21T16:36:17;3.02;;;1.47;;
14704;SDS011;7442;50.840;3.396;2023-11-21T16:39:03;4.05;;;1.40;;
14704;SDS011;7442;50.840;3.396;2023-11-21T16:41:50;1.40;;;1.20;;
14704;SDS011;7442;50.840;3.396;2023-11-21T16:44:37;2.85;;;1.40;;
14704;SDS011;7442;50.840;3.396;2023-11-21T16:47:23;5.33;;;1.57;;
14704;SDS011;7442;50.840;3.396;2023-11-21T16:50:10;3.55;;;1.55;;
14704;SDS011;7442;50.840;3.396;2023-11-21T16:52:56;3.40;;;1.22;;
14704;SDS011;7442;50.840;3.396;2023-11-21T16:55:42;2.12;;;1.32;;
14704;SDS011;7442;50.840;3.396;2023-11-21T16:58:30;2.45;;;1.30;;
14704;SDS011;7442;50.840;3.396;2023-11-21T17:01:18;6.08;;;1.67;;
14704;SDS011;7442;50.840;3.396;2023-11-21T17:04:05;2.62;;;1.47;;
14704;SDS011;7442;50.840;3.396;2023-11-21T17:06:53;2.00;;;1.47;;
14704;SDS011;7442;50.840;3.396;2023-11-21T17:09:39;2.00;;;1.30;;
14704;SDS011;7442;50.840;3.396;2023-11-21T17:12:25;3.95;;;1.60;;
14704;SDS011;7442;50.840;3.396;2023-11-21T17:15:11;5.08;;;1.42;;
14704;SDS011;7442;50.840;3.396;2023-11-21T17:17:58;4.75;;;1.52;;
14704;SDS011;7442;50.840;3.396;2023-11-21T17:20:45;2.77;;;1.30;;